Lancaster, Iowa
Current Conditions -  °F | °C
As of 8:55 PM on Tuesday 21 Oct 2014 (Local Time) from KOOA Reporting Station
Clear Clear  
Wind Chill: 43°   Ceiling: Unl
Heat Index: 47°   Visibility: 10mi
Dew Point: 39°   Wind: 8mph
Humidity: 74%   Direction: 100°E
Pressure: 30.19"   Gusts: NA
Location:  41.331°N, 92.1821°W
Report Text: KOOA 220155Z AUTO 10007KT 10SM CLR 08/04 A3019 RMK AO2 T00830040
Loading
Personal Weather Stations






























Interactive Weather Map
Tropical Storm Tracking
New forecast layout! Learn more

10-Day Weather Forecast

Advertisements
Track Severe Weather on mobile